Time;durP1;ratioP1;P1;durP2;ratioP2;P2;SDS_P1;SDS_P2;PMS_P1;PMS_P2;Temp;Humidity;BMP_temperature;BMP_pressure;BME280_temperature;BME280_humidity;BME280_pressure;Samples;Min_cycle;Max_cycle;Signal;HPM_P1;HPM_P2
2022/06/24 00:00:41;;;;;;;7.22;4.65;;;24.80;99.90;;;;;;7350299;19;108169;-88
2022/06/24 00:03:19;;;;;;;7.63;3.95;;;24.80;99.90;;;;;;7345922;19;107565;-88
2022/06/24 00:05:47;;;;;;;9.13;4.30;;;24.80;99.90;;;;;;7344681;19;108032;-88
2022/06/24 00:08:15;;;;;;;8.52;4.00;;;24.80;99.90;;;;;;7343106;19;109604;-88
2022/06/24 00:10:43;;;;;;;5.45;4.07;;;24.80;99.90;;;;;;7342704;19;107952;-88
2022/06/24 00:13:10;;;;;;;7.03;3.88;;;24.70;99.90;;;;;;7346511;19;108027;-88
2022/06/24 00:15:37;;;;;;;5.90;3.78;;;24.70;99.90;;;;;;7344086;19;108962;-88
2022/06/24 00:18:19;;;;;;;10.57;3.72;;;24.60;99.90;;;;;;7346568;19;107221;-89
2022/06/24 00:20:49;;;;;;;8.75;3.70;;;24.60;99.90;;;;;;7350086;19;107255;-89
2022/06/24 00:23:21;;;;;;;5.50;3.65;;;24.60;99.90;;;;;;7345816;19;110381;-89
2022/06/24 00:25:50;;;;;;;11.38;3.90;;;24.60;99.90;;;;;;7345901;19;109739;-90
2022/06/24 00:28:17;;;;;;;6.25;3.63;;;24.50;99.90;;;;;;7345663;19;110727;-87
2022/06/24 00:30:50;;;;;;;7.15;4.07;;;24.40;99.90;;;;;;7347517;19;107639;-89
2022/06/24 00:33:21;;;;;;;8.50;4.22;;;24.40;99.90;;;;;;7347691;19;108520;-88
2022/06/24 00:35:50;;;;;;;9.57;4.10;;;24.30;99.90;;;;;;7345882;19;109298;-87
2022/06/24 00:38:33;;;;;;;7.00;4.35;;;24.20;99.90;;;;;;7347276;19;107519;-89
2022/06/24 00:41:00;;;;;;;6.82;5.20;;;24.10;99.90;;;;;;7347658;19;108216;-87
2022/06/24 00:43:37;;;;;;;9.98;5.72;;;23.90;99.90;;;;;;7351491;19;109414;-87
2022/06/24 00:46:12;;;;;;;12.93;8.07;;;23.90;99.90;;;;;;7347150;19;108489;-87
2022/06/24 00:48:46;;;;;;;12.35;8.27;;;23.80;99.90;;;;;;7347319;19;109231;-87
2022/06/24 00:51:13;;;;;;;12.77;10.50;;;23.70;99.90;;;;;;7347149;19;107805;-87
2022/06/24 00:53:44;;;;;;;18.40;10.43;;;23.60;99.90;;;;;;7343700;19;111443;-87
2022/06/24 00:56:13;;;;;;;16.30;11.68;;;23.60;99.90;;;;;;7340979;19;111275;-87
2022/06/24 00:58:49;;;;;;;15.25;11.80;;;23.60;99.90;;;;;;7341226;19;113658;-87
2022/06/24 01:01:16;;;;;;;14.77;11.32;;;23.60;99.90;;;;;;7342960;19;111765;-88
2022/06/24 01:03:44;;;;;;;14.43;10.32;;;23.60;99.90;;;;;;7343189;19;110026;-88
2022/06/24 01:06:11;;;;;;;13.05;11.63;;;23.60;99.90;;;;;;7346865;19;112040;-87
2022/06/24 01:08:38;;;;;;;19.50;10.90;;;23.50;99.90;;;;;;7341746;19;110329;-88
2022/06/24 01:11:10;;;;;;;13.90;10.82;;;23.30;99.90;;;;;;7343187;19;111693;-87
2022/06/24 01:13:38;;;;;;;17.90;11.45;;;23.30;99.90;;;;;;7339572;19;115423;-87
2022/06/24 01:16:05;;;;;;;14.30;11.05;;;23.10;99.90;;;;;;7338407;19;111285;-87
2022/06/24 01:18:32;;;;;;;16.85;11.95;;;23.10;99.90;;;;;;7340595;19;110138;-86
2022/06/24 01:20:59;;;;;;;16.05;13.13;;;23.10;99.90;;;;;;7341328;19;111770;-86
2022/06/24 01:23:26;;;;;;;14.55;11.68;;;23.00;99.90;;;;;;7340113;19;109965;-85
2022/06/24 01:25:53;;;;;;;15.13;12.18;;;23.00;99.90;;;;;;7339152;19;114275;-86
2022/06/24 01:28:21;;;;;;;11.80;9.82;;;23.00;99.90;;;;;;7344391;19;112232;-86
2022/06/24 01:30:48;;;;;;;14.50;10.15;;;22.90;99.90;;;;;;7344579;19;111845;-86
2022/06/24 01:33:15;;;;;;;12.43;10.05;;;22.80;99.90;;;;;;7340801;19;111514;-88
2022/06/24 01:35:42;;;;;;;13.15;9.25;;;22.80;99.90;;;;;;7338635;19;109970;-87
2022/06/24 01:38:09;;;;;;;10.65;8.60;;;22.80;99.90;;;;;;7343310;19;111513;-87
2022/06/24 01:40:37;;;;;;;10.13;9.13;;;22.70;99.90;;;;;;7344045;19;107197;-87
2022/06/24 01:43:04;;;;;;;12.32;8.60;;;22.60;99.90;;;;;;7342254;19;108920;-88
2022/06/24 01:45:31;;;;;;;10.05;8.07;;;22.50;99.90;;;;;;7341084;19;107676;-86
2022/06/24 01:47:58;;;;;;;11.93;8.52;;;22.60;99.90;;;;;;7342795;19;108405;-87
2022/06/24 01:50:25;;;;;;;12.25;7.45;;;22.70;99.90;;;;;;7347192;19;108976;-87
2022/06/24 01:52:53;;;;;;;11.70;9.27;;;22.70;99.90;;;;;;7342189;19;108661;-86
2022/06/24 01:55:20;;;;;;;9.85;8.73;;;22.70;99.90;;;;;;7341221;19;108968;-87
2022/06/24 01:57:47;;;;;;;9.32;8.25;;;22.60;99.90;;;;;;7342368;19;107596;-87
2022/06/24 02:00:15;;;;;;;9.25;8.25;;;22.40;99.90;;;;;;7342950;19;107546;-87
2022/06/24 02:02:42;;;;;;;9.95;7.68;;;22.40;99.90;;;;;;7341807;19;108907;-87
2022/06/24 02:05:12;;;;;;;9.30;8.10;;;22.50;99.90;;;;;;7341854;19;108057;-87
2022/06/24 02:07:39;;;;;;;10.95;8.65;;;22.60;99.90;;;;;;7337350;19;108484;-87
2022/06/24 02:15:38;;;;;;;9.77;8.05;;;22.70;99.90;;;;;;7339027;19;109019;-86
2022/06/24 02:18:05;;;;;;;8.45;7.70;;;22.60;99.90;;;;;;7341943;19;107921;-86
2022/06/24 02:20:33;;;;;;;10.52;8.73;;;22.60;99.90;;;;;;7341635;19;107666;-85
2022/06/24 02:23:00;;;;;;;10.40;9.30;;;22.60;99.90;;;;;;7342214;19;108341;-87
2022/06/24 02:25:27;;;;;;;12.05;9.40;;;22.60;99.90;;;;;;7342680;19;107229;-88
2022/06/24 02:27:54;;;;;;;10.57;9.10;;;22.70;99.90;;;;;;7341320;19;108066;-87
2022/06/24 02:30:21;;;;;;;11.25;9.20;;;22.70;99.90;;;;;;7341585;19;108545;-87
2022/06/24 02:32:48;;;;;;;10.00;8.82;;;22.70;99.90;;;;;;7345740;19;110637;-87
2022/06/24 02:35:15;;;;;;;10.55;9.45;;;22.70;99.90;;;;;;7342421;19;107780;-87
2022/06/24 02:37:42;;;;;;;11.57;9.32;;;22.70;99.90;;;;;;7341470;19;107992;-87
2022/06/24 02:42:57;;;;;;;11.00;9.98;;;22.70;99.90;;;;;;7343280;19;111072;-87
2022/06/24 02:45:24;;;;;;;12.02;10.85;;;22.70;99.90;;;;;;7336685;19;110351;-88
2022/06/24 02:47:51;;;;;;;12.77;11.55;;;22.50;99.90;;;;;;7339751;19;111867;-88
2022/06/24 02:50:19;;;;;;;11.02;10.02;;;22.30;99.90;;;;;;7338070;19;110617;-87
2022/06/24 02:52:46;;;;;;;11.30;9.98;;;22.20;99.90;;;;;;7337870;19;111438;-86
2022/06/24 02:55:13;;;;;;;13.43;11.13;;;22.20;99.90;;;;;;7344465;19;111705;-88
2022/06/24 02:57:40;;;;;;;12.23;10.95;;;22.30;99.90;;;;;;7337559;19;114274;-86
2022/06/24 03:00:08;;;;;;;17.48;11.75;;;22.40;99.90;;;;;;7337112;19;112351;-86
2022/06/24 03:02:35;;;;;;;12.45;10.82;;;22.40;99.90;;;;;;7339093;19;111488;-87
2022/06/24 03:05:02;;;;;;;12.63;10.85;;;22.40;99.90;;;;;;7339120;19;110450;-87
2022/06/24 03:07:29;;;;;;;12.93;10.10;;;22.40;99.90;;;;;;7342139;19;112314;-88
2022/06/24 03:09:56;;;;;;;12.23;10.40;;;22.40;99.90;;;;;;7345083;19;110750;-88
2022/06/24 03:12:23;;;;;;;13.25;10.40;;;22.30;99.90;;;;;;7344301;19;114985;-88
2022/06/24 03:14:50;;;;;;;11.10;10.00;;;22.30;99.90;;;;;;7345566;19;112303;-87
2022/06/24 03:17:17;;;;;;;14.68;10.70;;;22.30;99.90;;;;;;7347638;19;111250;-87
2022/06/24 03:19:44;;;;;;;11.95;10.20;;;22.30;99.90;;;;;;7344927;19;110838;-87
2022/06/24 03:22:11;;;;;;;15.32;10.93;;;22.20;99.90;;;;;;7342478;19;110211;-88
2022/06/24 03:24:38;;;;;;;14.25;10.63;;;22.20;99.90;;;;;;7344356;19;110711;-87
2022/06/24 03:27:06;;;;;;;13.48;11.38;;;22.10;99.90;;;;;;7344690;19;111765;-88
2022/06/24 03:29:33;;;;;;;14.35;11.57;;;22.10;99.90;;;;;;7342384;19;110192;-87
2022/06/24 03:32:00;;;;;;;19.33;13.52;;;22.10;99.90;;;;;;7343704;19;112034;-87
2022/06/24 03:34:28;;;;;;;20.35;15.52;;;22.10;99.90;;;;;;7344484;19;111780;-87
2022/06/24 03:36:55;;;;;;;19.65;16.13;;;22.10;99.90;;;;;;7342008;19;110365;-87
2022/06/24 03:39:22;;;;;;;23.05;17.52;;;22.10;99.90;;;;;;7348447;19;111116;-87
2022/06/24 03:41:49;;;;;;;26.15;19.35;;;22.10;99.90;;;;;;7343386;19;110771;-88
2022/06/24 03:44:16;;;;;;;30.80;21.00;;;22.10;99.90;;;;;;7341447;19;111039;-88
2022/06/24 03:46:43;;;;;;;31.55;21.42;;;22.10;99.90;;;;;;7343250;19;112239;-87
2022/06/24 03:49:11;;;;;;;35.58;23.17;;;22.10;99.90;;;;;;7342531;19;111367;-87
2022/06/24 03:51:38;;;;;;;35.85;24.10;;;22.10;99.90;;;;;;7344491;19;111668;-88
2022/06/24 03:54:05;;;;;;;35.10;25.70;;;22.10;99.90;;;;;;7342943;19;112094;-86
2022/06/24 03:56:33;;;;;;;34.80;26.13;;;22.10;99.90;;;;;;7341750;19;109861;-86
2022/06/24 03:59:00;;;;;;;43.15;28.65;;;22.10;99.90;;;;;;7340102;19;114141;-89
2022/06/24 04:01:27;;;;;;;46.92;29.13;;;22.10;99.90;;;;;;7349108;19;111499;-88
2022/06/24 04:03:54;;;;;;;43.40;28.65;;;22.20;99.90;;;;;;7342526;19;111409;-88
2022/06/24 04:06:21;;;;;;;40.58;27.90;;;22.20;99.90;;;;;;7343016;19;110848;-88
2022/06/24 04:08:49;;;;;;;42.13;28.83;;;22.20;99.90;;;;;;7342489;19;110304;-88
2022/06/24 04:11:17;;;;;;;49.40;31.40;;;22.20;99.90;;;;;;7342707;19;111555;-87
2022/06/24 04:13:44;;;;;;;47.67;29.52;;;22.20;99.90;;;;;;7343045;19;111947;-87
2022/06/24 04:16:12;;;;;;;51.65;32.22;;;22.20;99.90;;;;;;7340461;19;110848;-89
2022/06/24 04:18:40;;;;;;;45.40;29.83;;;22.20;99.90;;;;;;7342635;19;111572;-87
2022/06/24 04:21:11;;;;;;;43.63;29.50;;;22.10;99.90;;;;;;7346573;19;111711;-87
2022/06/24 04:23:39;;;;;;;40.58;29.23;;;22.20;99.90;;;;;;7342763;19;111744;-88
2022/06/24 04:26:07;;;;;;;43.55;28.75;;;22.20;99.90;;;;;;7339722;19;111958;-87
2022/06/24 04:28:35;;;;;;;41.92;29.55;;;22.30;99.90;;;;;;7340276;19;110410;-87
2022/06/24 04:31:02;;;;;;;55.35;33.30;;;22.30;99.90;;;;;;7342024;19;111722;-86
2022/06/24 04:33:30;;;;;;;46.20;31.52;;;22.30;99.90;;;;;;7339623;19;111486;-87
2022/06/24 04:35:57;;;;;;;48.70;32.00;;;22.30;99.90;;;;;;7342013;19;109968;-86
2022/06/24 04:38:24;;;;;;;49.20;31.67;;;22.30;99.90;;;;;;7339352;19;113056;-87
2022/06/24 04:40:51;;;;;;;48.22;32.08;;;22.30;99.90;;;;;;7341275;19;112295;-86
2022/06/24 04:43:18;;;;;;;48.15;31.77;;;22.30;99.90;;;;;;7342460;19;111071;-86
2022/06/24 04:45:46;;;;;;;51.60;33.03;;;22.30;99.90;;;;;;7340776;19;111428;-86
2022/06/24 04:48:13;;;;;;;56.78;33.63;;;22.30;99.90;;;;;;7340394;19;110144;-86
2022/06/24 04:50:40;;;;;;;50.92;33.13;;;22.30;99.90;;;;;;7341748;19;110711;-88
2022/06/24 04:53:11;;;;;;;55.08;33.42;;;22.20;99.90;;;;;;7340851;19;111854;-89
2022/06/24 04:55:38;;;;;;;47.45;30.25;;;22.10;99.90;;;;;;7341792;19;110285;-88
2022/06/24 04:58:05;;;;;;;32.55;19.98;;;22.00;99.90;;;;;;7341915;19;111449;-88
2022/06/24 05:00:32;;;;;;;25.80;16.38;;;22.00;99.90;;;;;;7344346;19;112110;-89
2022/06/24 05:03:00;;;;;;;8.57;7.20;;;22.00;99.90;;;;;;7341036;19;109865;-87
2022/06/24 05:05:27;;;;;;;7.53;5.05;;;21.90;99.90;;;;;;7349466;19;111521;-87
2022/06/24 05:07:54;;;;;;;9.27;6.88;;;21.90;99.90;;;;;;7343616;19;109038;-88
2022/06/24 05:10:21;;;;;;;10.30;8.25;;;21.90;99.90;;;;;;7345661;19;107863;-88
2022/06/24 05:12:48;;;;;;;12.77;7.88;;;21.90;99.90;;;;;;7342834;19;107462;-89
2022/06/24 05:15:15;;;;;;;9.05;5.97;;;21.90;99.90;;;;;;7345355;19;109124;-88
2022/06/24 05:17:42;;;;;;;7.05;5.55;;;21.80;99.90;;;;;;7342635;19;107978;-87
2022/06/24 05:20:10;;;;;;;6.85;4.35;;;21.70;99.90;;;;;;7341409;19;108680;-86
2022/06/24 05:22:40;;;;;;;6.15;4.20;;;21.80;99.90;;;;;;7341762;19;108471;-87
2022/06/24 05:25:07;;;;;;;6.65;4.00;;;21.80;99.90;;;;;;7343384;19;107808;-86
2022/06/24 05:27:35;;;;;;;3.95;3.58;;;21.70;99.90;;;;;;7344917;19;108431;-87
2022/06/24 05:30:03;;;;;;;5.20;3.40;;;21.70;99.90;;;;;;7342610;19;107946;-87
2022/06/24 05:32:30;;;;;;;4.65;4.07;;;21.50;99.90;;;;;;7342155;19;108201;-87
2022/06/24 05:34:57;;;;;;;5.05;4.55;;;21.30;99.90;;;;;;7343056;19;108274;-87
2022/06/24 05:37:24;;;;;;;7.60;5.20;;;21.20;99.90;;;;;;7342516;19;108003;-86
2022/06/24 05:39:51;;;;;;;7.47;6.50;;;21.10;99.90;;;;;;7344457;19;112502;-87
2022/06/24 05:42:18;;;;;;;9.63;6.68;;;20.90;99.90;;;;;;7342396;19;108904;-88
2022/06/24 05:44:46;;;;;;;7.88;6.90;;;20.80;99.90;;;;;;7342412;19;108914;-88
2022/06/24 05:47:13;;;;;;;10.23;6.95;;;20.80;99.90;;;;;;7344397;19;108003;-87
2022/06/24 05:49:40;;;;;;;6.38;5.30;;;20.80;99.90;;;;;;7348255;19;111805;-88
2022/06/24 05:52:08;;;;;;;6.70;5.13;;;20.80;99.90;;;;;;7342543;19;108264;-87
2022/06/24 05:57:20;;;;;;;5.80;4.80;;;20.90;99.90;;;;;;7343144;19;107734;-87
2022/06/24 05:59:47;;;;;;;7.90;4.57;;;21.10;99.90;;;;;;7343442;19;108528;-87
2022/06/24 06:02:15;;;;;;;5.20;4.40;;;21.20;99.90;;;;;;7344323;19;108920;-87
2022/06/24 06:04:42;;;;;;;5.82;4.00;;;21.30;99.90;;;;;;7343670;19;107894;-87
2022/06/24 06:07:09;;;;;;;5.78;4.10;;;21.30;99.90;;;;;;7343406;19;111086;-86
2022/06/24 06:09:36;;;;;;;4.10;3.70;;;21.40;99.90;;;;;;7340152;19;109325;-86
2022/06/24 06:12:06;;;;;;;5.13;3.90;;;21.40;99.90;;;;;;7346797;19;108299;-85
2022/06/24 06:14:33;;;;;;;4.53;3.40;;;21.40;99.90;;;;;;7340962;19;108968;-86
2022/06/24 06:17:01;;;;;;;4.82;3.15;;;21.40;99.90;;;;;;7339976;19;107817;-86
2022/06/24 06:19:29;;;;;;;3.45;3.10;;;21.40;99.90;;;;;;7341671;19;108215;-86
2022/06/24 06:21:56;;;;;;;4.35;2.90;;;21.40;99.90;;;;;;7340719;19;109201;-87
2022/06/24 06:24:23;;;;;;;3.00;2.70;;;21.40;99.90;;;;;;7340708;19;108327;-86
2022/06/24 06:26:50;;;;;;;3.95;2.67;;;21.40;99.90;;;;;;7342305;19;108468;-85
2022/06/24 06:29:17;;;;;;;4.38;2.50;;;21.40;99.90;;;;;;7343628;19;108860;-85
2022/06/24 06:31:44;;;;;;;3.10;2.40;;;21.30;99.90;;;;;;7348143;19;107304;-85
2022/06/24 06:34:11;;;;;;;4.65;2.78;;;21.30;99.90;;;;;;7342855;19;108831;-86
2022/06/24 06:36:38;;;;;;;2.78;1.88;;;21.40;99.90;;;;;;7342502;19;107915;-85
2022/06/24 06:39:05;;;;;;;3.13;2.00;;;21.40;99.90;;;;;;7342129;19;108571;-85
2022/06/24 06:41:32;;;;;;;3.90;2.00;;;21.30;99.90;;;;;;7349646;19;108949;-84
2022/06/24 06:43:59;;;;;;;3.45;1.45;;;21.30;99.90;;;;;;7347820;19;107083;-86
2022/06/24 06:46:27;;;;;;;2.60;1.30;;;21.40;99.90;;;;;;7345133;19;108469;-86
2022/06/24 06:48:54;;;;;;;1.67;1.50;;;21.40;99.90;;;;;;7348430;19;107916;-85
2022/06/24 06:51:21;;;;;;;2.75;1.40;;;21.40;99.90;;;;;;7347865;19;108179;-85
2022/06/24 06:53:48;;;;;;;1.75;1.50;;;21.50;99.90;;;;;;7354252;19;108268;-86
2022/06/24 06:56:15;;;;;;;1.75;1.45;;;21.50;99.90;;;;;;7347363;19;108244;-86
2022/06/24 06:58:42;;;;;;;1.75;1.38;;;21.50;99.90;;;;;;7345562;19;108198;-86
2022/06/24 07:01:09;;;;;;;1.60;1.40;;;21.60;99.90;;;;;;7349944;19;110262;-86
2022/06/24 07:03:38;;;;;;;2.50;1.30;;;21.60;99.90;;;;;;7349440;19;108369;-87
2022/06/24 07:06:05;;;;;;;2.53;1.55;;;21.70;99.90;;;;;;7348255;19;108357;-85
2022/06/24 07:08:36;;;;;;;1.70;1.60;;;21.70;99.90;;;;;;7348065;19;109196;-86
2022/06/24 07:11:12;;;;;;;3.17;2.13;;;21.80;99.90;;;;;;7346399;19;108072;-86
2022/06/24 07:13:40;;;;;;;2.20;1.95;;;21.80;99.90;;;;;;7349045;19;107066;-86
2022/06/24 07:16:09;;;;;;;5.97;2.63;;;21.80;99.90;;;;;;7352890;19;112324;-85
2022/06/24 07:18:38;;;;;;;3.13;2.75;;;21.90;99.90;;;;;;7345522;19;108164;-86
2022/06/24 07:21:13;;;;;;;4.38;2.97;;;21.90;99.90;;;;;;7349253;19;107925;-86
2022/06/24 07:23:42;;;;;;;5.75;3.65;;;21.90;99.90;;;;;;7347465;19;107229;-86
2022/06/24 07:26:11;;;;;;;3.83;3.47;;;22.00;99.90;;;;;;7348164;19;107879;-86
2022/06/24 07:28:38;;;;;;;4.78;4.38;;;22.00;99.90;;;;;;7347297;19;108925;-86
2022/06/24 07:31:17;;;;;;;5.97;4.20;;;22.00;99.90;;;;;;7351332;19;108243;-91
2022/06/24 07:33:45;;;;;;;4.60;3.83;;;22.10;99.90;;;;;;7353718;19;107169;-92
2022/06/24 07:36:12;;;;;;;5.47;3.90;;;22.10;99.90;;;;;;7353279;19;109142;-90
2022/06/24 07:38:39;;;;;;;4.10;3.70;;;22.30;99.90;;;;;;7356023;19;108414;-90
2022/06/24 07:41:09;;;;;;;6.05;5.38;;;22.40;99.90;;;;;;7353075;19;109079;-89
2022/06/24 07:43:37;;;;;;;5.50;5.00;;;22.50;99.90;;;;;;7351310;19;108390;-89
2022/06/24 07:46:08;;;;;;;8.88;6.65;;;22.50;99.90;;;;;;7352437;19;110069;-89
2022/06/24 07:48:36;;;;;;;7.35;6.65;;;22.50;99.90;;;;;;7351330;19;110899;-89
2022/06/24 07:51:15;;;;;;;7.40;6.72;;;22.50;99.90;;;;;;7349434;19;108090;-88
2022/06/24 07:53:44;;;;;;;8.75;7.95;;;22.60;99.90;;;;;;7350158;19;108594;-88
2022/06/24 07:59:03;;;;;;;12.80;8.25;;;22.70;99.90;;;;;;7349620;19;107246;-91
2022/06/24 08:01:30;;;;;;;9.55;8.13;;;22.80;99.90;;;;;;7354852;19;108759;-88
2022/06/24 08:03:58;;;;;;;10.00;8.70;;;22.80;99.90;;;;;;7350921;19;107302;-90
2022/06/24 08:06:25;;;;;;;11.70;8.95;;;22.90;99.90;;;;;;7351824;19;107347;-89
2022/06/24 08:08:52;;;;;;;14.55;10.00;;;22.90;99.90;;;;;;7348815;19;109446;-87
2022/06/24 08:11:19;;;;;;;12.93;10.20;;;23.00;99.90;;;;;;7346723;19;109868;-89
2022/06/24 08:13:47;;;;;;;16.45;11.15;;;23.00;99.90;;;;;;7347081;19;111795;-89
2022/06/24 08:16:14;;;;;;;14.68;11.48;;;23.10;99.90;;;;;;7349667;19;111735;-90
2022/06/24 08:18:41;;;;;;;16.73;11.98;;;23.10;99.90;;;;;;7344331;19;111418;-89
2022/06/24 08:21:08;;;;;;;13.20;11.05;;;23.20;99.90;;;;;;7346946;19;111512;-90
2022/06/24 08:23:35;;;;;;;12.32;11.05;;;23.20;99.90;;;;;;7351576;19;111600;-89
2022/06/24 08:26:02;;;;;;;12.65;11.10;;;23.20;99.90;;;;;;7347570;19;111380;-89
2022/06/24 08:28:30;;;;;;;12.60;11.10;;;23.20;99.90;;;;;;7345970;19;109932;-89
2022/06/24 08:30:57;;;;;;;12.40;11.18;;;23.20;99.90;;;;;;7347125;19;111202;-91
2022/06/24 08:33:31;;;;;;;12.55;10.50;;;23.20;99.90;;;;;;7345460;19;109962;-91
2022/06/24 08:35:58;;;;;;;12.45;10.48;;;23.20;99.90;;;;;;7346166;19;109960;-89
2022/06/24 08:38:25;;;;;;;11.15;9.73;;;23.20;99.90;;;;;;7343733;19;111843;-88
2022/06/24 08:40:54;;;;;;;9.27;8.38;;;23.20;99.90;;;;;;7350245;19;111243;-89
2022/06/24 08:43:22;;;;;;;8.50;7.70;;;23.30;99.90;;;;;;7355418;19;107933;-88
2022/06/24 08:45:49;;;;;;;11.30;6.90;;;23.30;99.90;;;;;;7350961;19;107328;-90
2022/06/24 08:48:16;;;;;;;10.65;6.85;;;23.30;99.90;;;;;;7351636;19;107904;-88
2022/06/24 08:50:47;;;;;;;6.72;6.03;;;23.40;99.90;;;;;;7351964;19;108276;-90
2022/06/24 08:53:17;;;;;;;7.45;6.75;;;23.50;99.90;;;;;;7352236;19;108133;-93
2022/06/24 08:55:48;;;;;;;8.90;6.75;;;23.60;99.90;;;;;;7350800;19;110189;-88
2022/06/24 08:58:17;;;;;;;8.43;7.40;;;23.60;99.90;;;;;;7351331;19;109309;-89
2022/06/24 09:00:48;;;;;;;23.98;7.68;;;23.60;99.90;;;;;;7346279;19;107781;-91
2022/06/24 09:03:15;;;;;;;7.60;6.53;;;23.60;99.90;;;;;;7351536;19;107885;-90
2022/06/24 09:05:43;;;;;;;8.75;7.28;;;23.60;99.90;;;;;;7360189;19;107136;-91
2022/06/24 09:08:15;;;;;;;8.52;6.13;;;23.60;99.90;;;;;;7354386;19;109001;-92
2022/06/24 09:11:06;;;;;;;9.88;6.20;;;23.60;99.90;;;;;;7358659;19;107029;-91
2022/06/24 09:13:48;;;;;;;4.22;2.53;;;23.50;99.90;;;;;;7366211;19;108383;-90
2022/06/24 09:16:20;;;;;;;2.42;0.70;;;23.40;99.90;;;;;;7358836;19;106967;-90
2022/06/24 09:18:56;;;;;;;4.05;0.90;;;23.30;99.90;;;;;;7350032;19;108025;-89
2022/06/24 09:21:26;;;;;;;1.90;0.60;;;23.10;99.90;;;;;;7345686;19;107227;-84
2022/06/24 09:23:56;;;;;;;0.95;0.52;;;22.90;99.90;;;;;;7343753;19;111940;-86
2022/06/24 09:26:40;;;;;;;3.53;0.50;;;22.80;99.90;;;;;;7342346;19;107468;-85
2022/06/24 09:29:11;;;;;;;4.10;0.30;;;22.70;99.90;;;;;;7349660;19;107683;-86
2022/06/24 09:31:39;;;;;;;0.88;0.50;;;22.60;99.90;;;;;;7345559;19;107228;-86
2022/06/24 09:34:15;;;;;;;0.43;0.40;;;22.60;99.90;;;;;;7342193;19;108206;-85
2022/06/24 09:36:45;;;;;;;2.50;0.50;;;22.60;99.90;;;;;;7345950;19;108351;-85
2022/06/24 09:39:14;;;;;;;0.63;0.40;;;22.60;99.90;;;;;;7343227;19;107008;-86
2022/06/24 09:41:56;;;;;;;1.02;0.30;;;22.50;99.90;;;;;;7344610;19;107202;-87
2022/06/24 09:44:26;;;;;;;1.63;0.30;;;22.60;99.90;;;;;;7343546;19;107897;-86
2022/06/24 09:47:04;;;;;;;1.25;0.30;;;22.60;99.90;;;;;;7345868;19;109211;-85
2022/06/24 09:49:31;;;;;;;1.50;0.20;;;22.70;99.90;;;;;;7341986;19;107203;-85
2022/06/24 09:51:59;;;;;;;0.43;0.20;;;22.70;99.90;;;;;;7351114;19;108879;-85
2022/06/24 09:54:28;;;;;;;0.70;0.25;;;22.70;99.90;;;;;;7342629;19;108165;-86
2022/06/24 09:56:56;;;;;;;1.10;0.30;;;22.60;99.90;;;;;;7343464;19;109224;-86
2022/06/24 10:02:16;;;;;;;1.58;0.30;;;22.60;99.90;;;;;;7347228;19;108753;-85
2022/06/24 10:04:51;;;;;;;0.93;0.20;;;22.70;99.90;;;;;;7342442;19;109299;-86
2022/06/24 10:07:19;;;;;;;0.40;0.28;;;22.70;99.90;;;;;;7345466;19;108486;-82
2022/06/24 10:09:48;;;;;;;2.35;0.40;;;22.70;99.90;;;;;;7342246;19;107824;-82
2022/06/24 10:12:17;;;;;;;0.70;0.20;;;22.70;99.90;;;;;;7340249;19;108968;-82
2022/06/24 10:14:45;;;;;;;0.20;0.13;;;22.80;99.90;;;;;;7346365;19;108300;-82
2022/06/24 10:17:12;;;;;;;0.38;0.17;;;22.90;99.90;;;;;;7341628;19;108999;-82
2022/06/24 10:19:40;;;;;;;0.73;0.20;;;23.00;99.90;;;;;;7338834;19;108243;-82
2022/06/24 10:22:07;;;;;;;0.45;0.15;;;23.00;99.90;;;;;;7338768;19;108607;-81
2022/06/24 10:24:41;;;;;;;0.22;0.20;;;23.00;99.90;;;;;;7341267;19;108767;-82
2022/06/24 10:27:08;;;;;;;0.20;0.20;;;23.00;99.90;;;;;;7342227;19;107974;-82
2022/06/24 10:29:36;;;;;;;0.68;0.20;;;23.00;99.90;;;;;;7342263;19;108337;-81
2022/06/24 10:32:05;;;;;;;0.93;0.30;;;23.00;99.90;;;;;;7338239;19;109018;-81
2022/06/24 10:34:35;;;;;;;0.90;0.28;;;23.00;99.90;;;;;;7340765;19;107894;-82
2022/06/24 10:37:24;;;;;;;4.50;0.40;;;23.10;99.90;;;;;;7344941;19;108730;-82
2022/06/24 10:39:53;;;;;;;0.65;0.30;;;23.10;99.90;;;;;;7337960;19;107892;-82
2022/06/24 10:42:21;;;;;;;0.93;0.47;;;23.10;99.90;;;;;;7339841;19;108528;-83
2022/06/24 10:45:03;;;;;;;1.98;0.35;;;23.20;99.90;;;;;;7338751;19;108893;-82
2022/06/24 10:47:43;;;;;;;1.48;0.60;;;23.40;99.90;;;;;;7340519;19;108085;-82
2022/06/24 10:50:13;;;;;;;2.50;0.70;;;23.50;99.90;;;;;;7340489;19;108556;-81
2022/06/24 10:52:47;;;;;;;0.80;0.60;;;23.60;99.90;;;;;;7340989;19;108905;-82
2022/06/24 10:55:15;;;;;;;1.40;0.80;;;23.60;99.90;;;;;;7341715;19;107978;-82
2022/06/24 10:57:44;;;;;;;1.08;0.80;;;23.70;99.90;;;;;;7346551;19;108586;-82
2022/06/24 11:00:21;;;;;;;0.88;0.80;;;23.80;99.90;;;;;;7338937;19;107997;-82
2022/06/24 11:02:53;;;;;;;2.83;0.82;;;23.90;99.90;;;;;;7340542;19;109185;-82
2022/06/24 11:05:25;;;;;;;0.85;0.65;;;24.00;99.90;;;;;;7339527;19;109159;-81
2022/06/24 11:07:52;;;;;;;1.75;0.65;;;24.10;99.90;;;;;;7339949;19;107126;-81
2022/06/24 11:10:19;;;;;;;1.48;0.80;;;24.20;99.90;;;;;;7342452;19;108319;-84
2022/06/24 11:12:52;;;;;;;1.30;0.70;;;24.30;99.90;;;;;;7338441;19;109323;-82
2022/06/24 11:15:31;;;;;;;1.20;0.68;;;24.40;99.90;;;;;;7341362;19;107911;-83
2022/06/24 11:18:08;;;;;;;2.65;1.00;;;24.60;99.90;;;;;;7341818;19;108209;-83
2022/06/24 11:20:47;;;;;;;3.47;0.80;;;24.70;99.90;;;;;;7343553;19;107905;-83
2022/06/24 11:23:16;;;;;;;1.10;0.90;;;24.70;99.90;;;;;;7342605;19;107620;-82
2022/06/24 11:25:55;;;;;;;3.47;0.77;;;24.70;99.90;;;;;;7342210;19;109374;-82
2022/06/24 11:28:36;;;;;;;1.55;0.70;;;24.80;99.90;;;;;;7348935;19;107872;-83
2022/06/24 11:31:14;;;;;;;1.00;0.70;;;24.90;99.90;;;;;;7349064;19;108267;-83
2022/06/24 11:33:41;;;;;;;2.58;0.70;;;25.00;99.90;;;;;;7348686;19;108779;-83
2022/06/24 11:36:09;;;;;;;1.02;0.70;;;25.10;99.90;;;;;;7348261;19;107378;-82
2022/06/24 11:38:55;;;;;;;2.58;0.63;;;25.20;99.90;;;;;;7347075;19;108131;-82
2022/06/24 11:41:25;;;;;;;3.42;0.52;;;25.30;99.90;;;;;;7347928;19;107862;-82
2022/06/24 11:44:13;;;;;;;1.70;0.60;;;25.30;99.90;;;;;;7353024;19;110432;-82
2022/06/24 11:46:48;;;;;;;1.80;0.57;;;25.40;99.90;;;;;;7347891;19;108243;-82
2022/06/24 11:49:16;;;;;;;1.88;0.95;;;25.40;99.90;;;;;;7346513;19;108216;-82
2022/06/24 11:51:46;;;;;;;2.45;0.70;;;25.40;99.90;;;;;;7346101;19;108242;-84
2022/06/24 11:54:13;;;;;;;1.83;0.80;;;25.40;99.90;;;;;;7346169;19;109028;-83
2022/06/24 11:56:42;;;;;;;2.97;0.80;;;25.40;99.90;;;;;;7348735;19;108550;-82
2022/06/24 11:59:11;;;;;;;5.05;0.77;;;25.50;99.90;;;;;;7345924;19;108222;-83
2022/06/24 12:01:45;;;;;;;2.78;0.73;;;25.70;99.90;;;;;;7346366;19;108955;-83
2022/06/24 12:04:13;;;;;;;3.88;0.75;;;25.80;99.90;;;;;;7347700;19;108453;-84
2022/06/24 12:06:41;;;;;;;1.60;1.00;;;25.90;99.90;;;;;;7351143;19;108617;-83
2022/06/24 12:09:10;;;;;;;1.30;0.82;;;25.80;99.90;;;;;;7345562;19;108067;-82
2022/06/24 12:11:41;;;;;;;4.20;0.82;;;25.90;99.90;;;;;;7345942;19;107201;-83
2022/06/24 12:14:11;;;;;;;2.30;0.93;;;26.10;99.90;;;;;;7347142;19;109246;-83
2022/06/24 12:17:02;;;;;;;1.52;0.90;;;26.20;99.90;;;;;;7347010;19;107608;-83
2022/06/24 12:19:31;;;;;;;2.85;0.85;;;26.40;99.90;;;;;;7346069;19;110511;-83
2022/06/24 12:22:09;;;;;;;1.63;0.65;;;26.50;99.90;;;;;;7347078;19;108849;-83
2022/06/24 12:24:38;;;;;;;5.47;1.08;;;26.60;99.90;;;;;;7345144;19;108250;-83
2022/06/24 12:27:07;;;;;;;1.60;0.70;;;26.80;99.90;;;;;;7346642;19;107432;-82
2022/06/24 12:29:39;;;;;;;1.73;0.60;;;27.00;99.90;;;;;;7350259;19;109229;-83
2022/06/24 12:32:13;;;;;;;2.08;0.70;;;27.10;99.90;;;;;;7345784;19;109868;-82
2022/06/24 12:34:41;;;;;;;2.25;0.70;;;27.10;99.90;;;;;;7342824;19;109214;-82
2022/06/24 12:37:12;;;;;;;0.98;0.60;;;27.20;99.90;;;;;;7343645;19;107988;-81
2022/06/24 12:39:42;;;;;;;2.88;0.80;;;27.20;99.90;;;;;;7344773;19;107418;-81
2022/06/24 12:42:17;;;;;;;1.00;0.68;;;27.20;99.90;;;;;;7346937;19;110206;-82
2022/06/24 12:44:51;;;;;;;0.80;0.52;;;27.40;99.90;;;;;;7340158;19;107872;-83
2022/06/24 12:53:03;;;;;;;0.98;0.52;;;28.00;99.80;;;;;;7350656;19;106714;-82
2022/06/24 12:55:32;;;;;;;1.13;0.60;;;28.20;98.60;;;;;;7344477;19;107977;-82
2022/06/24 12:58:01;;;;;;;0.60;0.47;;;28.30;98.60;;;;;;7344588;19;108159;-83
2022/06/24 13:00:28;;;;;;;1.75;0.47;;;28.20;98.70;;;;;;7344122;19;108466;-85
2022/06/24 13:02:56;;;;;;;2.08;0.50;;;28.20;98.40;;;;;;7341387;19;109341;-83